createdAt,value
2023-04-09T00:01:12.025Z,11.80
2023-04-09T00:06:17.739Z,12.20
2023-04-09T00:11:23.192Z,11.10
2023-04-09T00:16:28.577Z,11.20
2023-04-09T00:21:33.902Z,11.30
2023-04-09T00:26:39.435Z,12.60
2023-04-09T00:31:45.013Z,12.60
2023-04-09T00:36:50.652Z,11.50
2023-04-09T00:41:59.023Z,12.40
2023-04-09T00:47:05.319Z,13.60
2023-04-09T00:52:11.214Z,14.40
2023-04-09T00:57:16.886Z,13.40
2023-04-09T01:02:22.411Z,12.20
2023-04-09T01:07:36.168Z,13.40
2023-04-09T01:12:54.612Z,13.90
2023-04-09T01:18:06.783Z,12.90
2023-04-09T01:23:18.655Z,11.90
2023-04-09T01:28:30.434Z,12.30
2023-04-09T01:33:38.013Z,13.00
2023-04-09T01:38:45.410Z,12.00
2023-04-09T01:43:52.240Z,11.20
2023-04-09T01:48:58.660Z,13.30
2023-04-09T01:54:04.480Z,13.10
2023-04-09T01:59:10.322Z,11.80
2023-04-09T02:04:22.886Z,11.70
2023-04-09T02:09:31.543Z,12.70
2023-04-09T02:14:37.554Z,13.50
2023-04-09T02:19:47.660Z,12.40
2023-04-09T02:24:53.159Z,11.30
2023-04-09T02:29:58.550Z,12.60
2023-04-09T02:35:04.447Z,14.20
2023-04-09T02:40:11.961Z,13.20
2023-04-09T02:45:17.404Z,12.30
2023-04-09T02:50:23.194Z,14.00
2023-04-09T02:55:30.357Z,13.90
2023-04-09T03:00:36.045Z,15.00
2023-04-09T03:05:41.571Z,13.50
2023-04-09T03:10:47.020Z,15.50
2023-04-09T03:15:54.149Z,17.60
2023-04-09T03:20:59.727Z,15.80
2023-04-09T03:26:06.823Z,15.00
2023-04-09T03:31:18.505Z,16.10
2023-04-09T03:36:24.704Z,15.10
2023-04-09T03:41:35.689Z,15.70
2023-04-09T03:46:47.577Z,14.90
2023-04-09T03:51:55.177Z,14.00
2023-04-09T03:57:03.666Z,14.10
2023-04-09T04:02:09.316Z,14.20
2023-04-09T04:07:17.087Z,17.50
2023-04-09T04:12:33.926Z,20.60
2023-04-09T04:17:46.172Z,21.10
2023-04-09T04:23:02.039Z,16.40
2023-04-09T04:28:08.094Z,15.10
2023-04-09T04:33:17.661Z,15.80
2023-04-09T04:38:27.697Z,16.60
2023-04-09T04:43:33.925Z,16.70
2023-04-09T04:48:39.672Z,15.30
2023-04-09T04:53:45.514Z,16.30
2023-04-09T04:58:52.379Z,20.80
2023-04-09T05:03:58.730Z,18.10
2023-04-09T05:09:08.957Z,20.40
2023-04-09T05:14:21.526Z,23.70
2023-04-09T05:19:27.106Z,21.80
2023-04-09T05:24:38.702Z,22.80
2023-04-09T05:29:44.625Z,21.10
2023-04-09T05:34:50.848Z,22.90
2023-04-09T05:48:43.363Z,18.70
2023-04-09T05:53:50.006Z,19.60
2023-04-09T05:58:55.996Z,17.80
2023-04-09T06:04:02.190Z,15.00
2023-04-09T06:09:08.924Z,11.20
2023-04-09T06:14:18.460Z,10.70
2023-04-09T06:19:24.120Z,9.80
2023-04-09T06:24:31.301Z,11.40
2023-04-09T06:29:36.846Z,24.90
2023-04-09T06:34:42.692Z,20.40
2023-04-09T06:40:00.632Z,14.10
2023-04-09T06:45:08.788Z,17.40
2023-04-09T06:50:14.505Z,16.20
2023-04-09T06:55:20.353Z,14.30
2023-04-09T07:00:26.103Z,14.00
2023-04-09T07:05:31.674Z,13.70
2023-04-09T07:10:37.241Z,13.90
2023-04-09T07:15:42.853Z,14.20
2023-04-09T07:20:48.509Z,14.60
2023-04-09T07:25:54.394Z,14.30
2023-04-09T07:31:02.811Z,15.10
2023-04-09T07:36:08.626Z,13.70
2023-04-09T07:41:17.305Z,12.80
2023-04-09T07:46:23.022Z,11.60
2023-04-09T07:51:28.622Z,9.30
2023-04-09T07:56:33.966Z,9.60
2023-04-09T08:01:43.737Z,12.90
2023-04-09T08:06:55.729Z,8.70
2023-04-09T08:12:01.379Z,7.10
2023-04-09T08:17:14.137Z,7.10
2023-04-09T08:22:20.072Z,7.40
2023-04-09T08:27:25.554Z,7.30
2023-04-09T08:32:31.577Z,6.60
2023-04-09T08:37:37.082Z,7.80
2023-04-09T08:42:46.431Z,8.60
2023-04-09T08:47:53.316Z,8.40
2023-04-09T08:53:02.363Z,8.20
2023-04-09T08:58:09.596Z,9.20
2023-04-09T09:03:15.197Z,8.40
2023-04-09T09:08:26.840Z,8.80
2023-04-09T09:13:32.283Z,9.50
2023-04-09T09:18:42.101Z,10.20
2023-04-09T09:23:49.670Z,9.00
2023-04-09T09:28:56.503Z,9.50
2023-04-09T09:34:11.957Z,9.30
2023-04-09T09:39:18.040Z,9.60
2023-04-09T09:44:38.650Z,8.40
2023-04-09T09:49:44.279Z,8.90
2023-04-09T09:54:53.387Z,8.10
2023-04-09T10:00:04.243Z,9.20
2023-04-09T10:05:52.613Z,7.50
2023-04-09T10:11:08.942Z,8.90
2023-04-09T10:16:15.482Z,9.20
2023-04-09T10:21:31.112Z,9.20
2023-04-09T10:26:41.637Z,8.90
2023-04-09T10:31:53.804Z,8.30
2023-04-09T10:36:59.978Z,7.40
2023-04-09T10:42:12.481Z,7.20
2023-04-09T10:47:36.098Z,7.70
2023-04-09T10:52:42.551Z,7.70
2023-04-09T10:57:48.248Z,7.40
2023-04-09T11:03:19.327Z,6.90
2023-04-09T11:08:27.857Z,7.70
2023-04-09T11:13:34.338Z,7.50
2023-04-09T11:18:40.969Z,7.90
2023-04-09T11:23:53.014Z,8.70
2023-04-09T11:28:58.873Z,9.80
2023-04-09T11:34:04.751Z,9.20
2023-04-09T11:39:10.408Z,8.50
2023-04-09T11:44:15.944Z,8.30
2023-04-09T11:49:22.513Z,7.20
2023-04-09T11:54:33.275Z,6.50
2023-04-09T11:59:41.251Z,6.30
2023-04-09T12:04:52.212Z,6.70
2023-04-09T12:10:02.993Z,6.80
2023-04-09T12:15:18.637Z,6.50
2023-04-09T12:20:39.533Z,6.70
2023-04-09T12:25:46.866Z,7.20
2023-04-09T12:30:52.407Z,6.20
2023-04-09T12:35:58.518Z,6.30
2023-04-09T12:41:04.468Z,6.30
2023-04-09T12:46:10.311Z,6.30
2023-04-09T12:51:16.212Z,6.40
2023-04-09T12:56:21.710Z,5.80
2023-04-09T13:01:27.326Z,6.00
2023-04-09T13:06:32.822Z,6.80
2023-04-09T13:11:38.267Z,5.80
2023-04-09T13:16:43.728Z,6.20
2023-04-09T13:21:49.183Z,6.60
2023-04-09T13:26:54.532Z,6.00
2023-04-09T13:32:02.608Z,5.80
2023-04-09T13:37:09.259Z,6.00
2023-04-09T13:42:17.132Z,4.80
2023-04-09T13:47:24.111Z,4.40
2023-04-09T13:52:30.444Z,4.90
2023-04-09T13:57:36.495Z,5.40
2023-04-09T14:02:42.225Z,5.60
2023-04-09T14:07:47.691Z,9.50
2023-04-09T14:12:53.304Z,11.00
2023-04-09T14:17:58.762Z,10.50
2023-04-09T14:23:04.191Z,6.80
2023-04-09T14:28:09.621Z,6.30
2023-04-09T14:33:15.290Z,5.40
2023-04-09T14:38:20.693Z,5.60
2023-04-09T14:43:26.205Z,5.20
2023-04-09T14:48:31.850Z,5.10
2023-04-09T14:53:37.467Z,5.60
2023-04-09T14:58:43.239Z,5.00
2023-04-09T15:03:48.680Z,4.60
2023-04-09T15:08:54.615Z,4.50
2023-04-09T15:14:00.414Z,4.40
2023-04-09T15:19:05.816Z,5.10
2023-04-09T15:24:11.522Z,5.20
2023-04-09T15:29:16.880Z,5.00
2023-04-09T15:34:23.740Z,4.90
2023-04-09T15:39:29.488Z,5.40
2023-04-09T15:44:36.291Z,5.20
2023-04-09T15:49:41.765Z,4.60
2023-04-09T15:54:47.077Z,5.00
2023-04-09T15:59:53.751Z,5.30
2023-04-09T16:04:59.171Z,5.20
2023-04-09T16:10:05.759Z,4.80
2023-04-09T16:15:12.287Z,4.70
2023-04-09T16:20:17.992Z,5.20
2023-04-09T16:25:24.544Z,5.30
2023-04-09T16:30:31.672Z,4.90
2023-04-09T16:35:39.471Z,4.60
2023-04-09T16:40:45.935Z,5.20
2023-04-09T16:45:52.288Z,5.60
2023-04-09T16:50:57.854Z,5.20
2023-04-09T16:56:04.237Z,5.30
2023-04-09T17:01:09.607Z,5.70
2023-04-09T17:06:15.150Z,4.90
2023-04-09T17:11:21.306Z,5.00
2023-04-09T17:16:27.796Z,4.70
2023-04-09T17:21:33.409Z,4.50
2023-04-09T17:26:39.123Z,4.60
2023-04-09T17:31:45.037Z,4.80
2023-04-09T17:36:56.442Z,5.50
2023-04-09T17:42:04.044Z,6.30
2023-04-09T17:47:09.496Z,8.40
2023-04-09T17:52:16.384Z,9.90
2023-04-09T17:57:22.191Z,9.00
2023-04-09T18:02:27.847Z,8.00
2023-04-09T18:07:34.024Z,8.50
2023-04-09T18:12:39.587Z,8.90
2023-04-09T18:17:45.386Z,7.50
2023-04-09T18:22:52.155Z,6.50
2023-04-09T18:27:57.610Z,6.40
2023-04-09T18:33:03.087Z,6.80
2023-04-09T18:38:08.983Z,9.00
2023-04-09T18:43:14.445Z,4.90
2023-04-09T18:48:20.388Z,5.50
2023-04-09T18:53:26.691Z,15.60
2023-04-09T18:58:33.750Z,14.90
2023-04-09T19:03:39.846Z,10.10
2023-04-09T19:08:46.624Z,7.50
2023-04-09T19:13:52.563Z,9.00
2023-04-09T19:18:58.482Z,12.70
2023-04-09T19:24:06.037Z,15.20
2023-04-09T19:29:12.165Z,12.50
2023-04-09T19:34:17.614Z,12.00
2023-04-09T19:39:23.502Z,10.50
2023-04-09T19:44:29.357Z,10.70
2023-04-09T19:49:35.472Z,10.20
2023-04-09T19:54:41.263Z,9.90
2023-04-09T19:59:48.588Z,11.40
2023-04-09T20:04:55.685Z,13.00
2023-04-09T20:10:01.112Z,15.50
2023-04-09T20:15:09.977Z,14.30
2023-04-09T20:20:20.211Z,21.20
2023-04-09T20:25:26.075Z,22.90
2023-04-09T20:30:32.362Z,24.60
2023-04-09T20:35:38.033Z,31.80
2023-04-09T20:40:43.536Z,22.30
2023-04-09T20:46:12.690Z,21.60
2023-04-09T20:51:18.245Z,19.30
2023-04-09T20:56:23.758Z,19.40
2023-04-09T21:01:29.455Z,18.30
2023-04-09T21:06:36.297Z,19.30
2023-04-09T21:11:41.843Z,17.10
2023-04-09T21:16:47.509Z,16.40
2023-04-09T21:21:53.457Z,15.70
2023-04-09T21:26:59.052Z,13.00
2023-04-09T21:32:04.556Z,12.20
2023-04-09T21:37:10.417Z,12.20
2023-04-09T21:42:15.870Z,12.40
2023-04-09T21:47:22.831Z,12.50
2023-04-09T21:52:28.298Z,11.20
2023-04-09T21:57:33.740Z,10.60
2023-04-09T22:02:40.092Z,12.30
2023-04-09T22:07:45.914Z,13.10
2023-04-09T22:12:51.375Z,16.50
2023-04-09T22:17:57.785Z,14.10
2023-04-09T22:23:03.496Z,11.90
2023-04-09T22:28:09.007Z,11.10
2023-04-09T22:33:14.482Z,12.40
2023-04-09T22:38:20.957Z,13.20
2023-04-09T22:43:26.543Z,13.20
2023-04-09T22:48:35.843Z,12.40
2023-04-09T22:53:43.966Z,12.30
2023-04-09T22:58:49.511Z,11.30
2023-04-09T23:03:55.081Z,11.60
2023-04-09T23:09:00.484Z,13.80
2023-04-09T23:14:06.194Z,12.60
2023-04-09T23:19:11.724Z,11.40
2023-04-09T23:24:17.690Z,9.60
2023-04-09T23:29:23.336Z,11.00
2023-04-09T23:34:28.831Z,11.90
2023-04-09T23:39:34.440Z,10.60
2023-04-09T23:44:40.021Z,9.90
2023-04-09T23:49:45.392Z,12.10
2023-04-09T23:54:51.582Z,11.60
2023-04-09T23:59:57.213Z,10.50
